메인 페이지
METAR-TAF:

METAR-TAF

공항 :

Santa Monica Municipal Airport

샌타모니카, 캘리포니아, 미국

위도: 34-00-57N, 경도: 118-27-05W, 고도: 53m

현재 날씨관측

예보는 30분 전, 14:51시(UTC)에 발표되었습니다.
무풍
온도 17°C
습도 88%
기압 1010 hPa
시정: 12.9km
고도 1100ft 상공 흐림

METAR: KSMO 201451Z 00000KT 8SM OVC011 17/15 A2983

시각: 08:21 (15:21 UTC)

예보

예보는 3 시간 11분 전, 12:10시(UTC)에 발표되었습니다.
예보 대상 시간: 20일 12시부터 21일 12시까지 (UTC)
여러 방향의 바람 3kt
시정: 10km
맑음
20일 1400시부터 (UTC)
여러 방향의 바람 3kt
시정: 10km
고도 1500ft 상공 흐림
20일 1700시부터 (UTC)
남서5kt
시정: 10km
고도 1500ft 상공 구름 보통
20일 1900시부터 (UTC)
서남서10kt
시정: 10km
맑음
21일 0300시부터 (UTC)
여러 방향의 바람 3kt
시정: 10km
맑음

TAF: KSMO 201210Z 2012/2112 VRB03KT P6SM SKC FM201400 VRB03KT P6SM OVC015 FM201700 23005KT P6SM SCT015 FM201900 24010KT P6SM SKC FM210300 VRB03KT P6SM SKC

4,000개 이상의 공항 관측 자료 및 예보 (METAR 및 TAF 보고).

지도상에서 검색 가능한 기상관측소가 노란 점과 빨간 점으로 표시되어 있습니다.

기상관측소 명을 보려면 표시 위로 마우스를 이동하세요.

날씨 관측과 예보를 보려면 클릭하세요.

지도 변경 : 확대하려면 엑스 표시가 있는 녹색 버튼, 축소하려면 빼기 표시가 있는 녹색 버튼, 다음 페이지의 지도를 보려면 녹색 화살표를 클릭하세요.


METAR-TAF: